Time;durP1;ratioP1;P1;durP2;ratioP2;P2;SDS_P1;SDS_P2;PMS_P1;PMS_P2;Temp;Humidity;BMP_temperature;BMP_pressure;BME280_temperature;BME280_humidity;BME280_pressure;Samples;Min_cycle;Max_cycle;Signal;HPM_P1;HPM_P2
2023/08/06 00:00:11;;;;;;;17.23;9.68;;;14.00;99.90;;;;;;5060020;28;20073;-62
2023/08/06 00:02:37;;;;;;;11.90;9.30;;;14.00;99.90;;;;;;5074072;28;20051;-62
2023/08/06 00:05:03;;;;;;;12.13;9.55;;;14.00;99.90;;;;;;5093066;28;20085;-62
2023/08/06 00:07:28;;;;;;;11.27;8.82;;;14.00;99.90;;;;;;5074583;28;20044;-63
2023/08/06 00:09:54;;;;;;;12.02;9.32;;;14.00;99.90;;;;;;5057336;28;20036;-62
2023/08/06 00:12:20;;;;;;;11.35;8.27;;;14.00;99.90;;;;;;5074873;28;20093;-62
2023/08/06 00:14:45;;;;;;;14.18;9.00;;;14.10;99.90;;;;;;5074272;28;20047;-62
2023/08/06 00:17:11;;;;;;;11.65;8.88;;;14.00;99.90;;;;;;5074039;28;20054;-62
2023/08/06 00:19:37;;;;;;;12.68;7.85;;;14.10;99.90;;;;;;5092466;28;20036;-62
2023/08/06 00:22:03;;;;;;;11.60;9.05;;;14.00;99.90;;;;;;5092866;28;20043;-62
2023/08/06 00:24:28;;;;;;;12.13;8.65;;;14.00;99.90;;;;;;5057101;28;20036;-62
2023/08/06 00:26:54;;;;;;;12.13;9.15;;;14.10;99.90;;;;;;5074456;28;20043;-62
2023/08/06 00:29:20;;;;;;;13.38;9.75;;;14.00;99.90;;;;;;5074632;28;20082;-62
2023/08/06 00:31:45;;;;;;;12.70;9.80;;;14.00;99.90;;;;;;5091226;28;20061;-62
2023/08/06 00:34:11;;;;;;;11.27;8.35;;;14.00;99.90;;;;;;5074550;28;20396;-62
2023/08/06 00:36:37;;;;;;;11.73;9.10;;;14.00;99.90;;;;;;5074073;28;20032;-62
2023/08/06 00:39:03;;;;;;;12.13;9.20;;;14.00;99.90;;;;;;5073074;28;20048;-62
2023/08/06 00:41:28;;;;;;;10.30;8.45;;;14.00;99.90;;;;;;5057502;28;20036;-62
2023/08/06 00:43:54;;;;;;;15.15;10.48;;;14.00;99.90;;;;;;5074283;28;20568;-62
2023/08/06 00:46:20;;;;;;;12.05;9.35;;;14.00;99.90;;;;;;5073392;28;20052;-62
2023/08/06 00:48:46;;;;;;;12.00;9.15;;;14.00;99.90;;;;;;5073839;28;20451;-62
2023/08/06 00:51:12;;;;;;;16.05;10.85;;;14.00;99.90;;;;;;5072866;28;20032;-62
2023/08/06 00:53:39;;;;;;;11.48;9.23;;;14.00;99.90;;;;;;5074061;28;20036;-62
2023/08/06 00:56:05;;;;;;;12.15;9.40;;;14.00;99.90;;;;;;5074284;28;20067;-62
2023/08/06 00:58:32;;;;;;;14.40;8.80;;;14.00;99.90;;;;;;5073682;28;20062;-62
2023/08/06 01:00:57;;;;;;;15.55;9.93;;;14.00;99.90;;;;;;5073950;28;20048;-62
2023/08/06 01:03:23;;;;;;;13.23;9.55;;;14.00;99.90;;;;;;5092272;28;20507;-62
2023/08/06 01:05:50;;;;;;;14.13;9.60;;;14.00;99.90;;;;;;5090921;28;20039;-62
2023/08/06 01:08:21;;;;;;;13.30;10.18;;;14.00;99.90;;;;;;5074385;28;20405;-63
2023/08/06 01:11:05;;;;;;;14.82;10.38;;;14.00;99.90;;;;;;5091781;28;20392;-62
2023/08/06 01:14:05;;;;;;;14.45;9.25;;;13.90;99.90;;;;;;5072985;28;20058;-63
2023/08/06 01:16:31;;;;;;;13.27;10.27;;;14.00;99.90;;;;;;5031081;28;20055;-62
2023/08/06 01:18:58;;;;;;;14.02;10.52;;;14.00;99.90;;;;;;5073950;28;20052;-62
2023/08/06 01:21:24;;;;;;;14.60;9.48;;;14.00;99.90;;;;;;5072828;28;20044;-62
2023/08/06 01:23:49;;;;;;;11.75;9.07;;;13.90;99.90;;;;;;5056806;28;20073;-63
2023/08/06 01:26:25;;;;;;;14.15;10.25;;;13.90;99.90;;;;;;5074059;28;20089;-62
2023/08/06 01:29:09;;;;;;;15.75;11.25;;;14.00;99.90;;;;;;5091653;28;20515;-62
2023/08/06 01:31:41;;;;;;;14.48;11.25;;;14.00;99.90;;;;;;5056694;28;20075;-63
2023/08/06 01:34:17;;;;;;;13.82;10.85;;;14.00;99.90;;;;;;5091519;28;20051;-62
2023/08/06 01:36:43;;;;;;;12.13;10.02;;;14.00;99.90;;;;;;5056551;28;20137;-62
2023/08/06 01:39:08;;;;;;;13.63;10.27;;;14.00;99.90;;;;;;5073824;28;20508;-62
2023/08/06 01:41:34;;;;;;;14.90;10.82;;;14.00;99.90;;;;;;5056347;28;20094;-62
2023/08/06 01:44:00;;;;;;;14.30;10.35;;;14.00;99.90;;;;;;5073426;28;20150;-62
2023/08/06 01:46:26;;;;;;;11.25;8.90;;;14.00;99.90;;;;;;5073539;28;20052;-62
2023/08/06 01:48:51;;;;;;;13.32;9.63;;;14.00;99.90;;;;;;5055284;28;20158;-63
2023/08/06 01:51:17;;;;;;;13.88;10.52;;;14.00;99.90;;;;;;5073437;28;20054;-62
2023/08/06 01:53:43;;;;;;;14.80;10.80;;;14.00;99.90;;;;;;5073285;28;20036;-62
2023/08/06 01:56:08;;;;;;;13.15;10.23;;;14.00;99.90;;;;;;5073283;28;20040;-63
2023/08/06 01:58:34;;;;;;;14.63;11.10;;;14.00;99.90;;;;;;5073330;28;20040;-63
2023/08/06 02:01:01;;;;;;;15.60;10.23;;;14.00;99.90;;;;;;5073755;28;20044;-63
2023/08/06 02:03:27;;;;;;;13.65;10.05;;;14.00;99.90;;;;;;5094958;28;20051;-63
2023/08/06 02:05:53;;;;;;;16.05;11.68;;;14.00;99.90;;;;;;5060439;28;20032;-63
2023/08/06 02:08:19;;;;;;;15.15;11.55;;;14.00;99.90;;;;;;5060849;28;20396;-63
2023/08/06 02:10:45;;;;;;;14.10;11.00;;;14.00;99.90;;;;;;5094107;28;20042;-63
2023/08/06 02:13:11;;;;;;;15.95;11.40;;;14.00;99.90;;;;;;5076595;28;20039;-62
2023/08/06 02:15:47;;;;;;;16.73;12.60;;;14.00;99.90;;;;;;5075947;28;20044;-62
2023/08/06 02:18:14;;;;;;;14.48;10.18;;;14.00;99.90;;;;;;5077485;28;20404;-61
2023/08/06 02:20:40;;;;;;;14.13;10.70;;;14.00;99.90;;;;;;5094759;28;20036;-61
2023/08/06 02:23:06;;;;;;;15.50;11.40;;;13.90;99.90;;;;;;5094238;28;20054;-60
2023/08/06 02:25:32;;;;;;;15.30;10.45;;;13.90;99.90;;;;;;5076698;28;20047;-60
2023/08/06 02:27:57;;;;;;;14.95;11.32;;;14.00;99.90;;;;;;5076656;28;20408;-60
2023/08/06 02:30:23;;;;;;;17.38;11.63;;;13.90;99.90;;;;;;5059491;28;20388;-60
2023/08/06 02:32:49;;;;;;;13.30;10.35;;;13.90;99.90;;;;;;5076359;28;20035;-60
2023/08/06 02:35:14;;;;;;;15.23;11.90;;;13.90;99.90;;;;;;5060125;28;20036;-60
2023/08/06 02:37:40;;;;;;;18.20;12.63;;;13.90;99.90;;;;;;5093728;28;20046;-61
2023/08/06 02:40:06;;;;;;;16.00;11.40;;;13.90;99.90;;;;;;5094673;28;20120;-61
2023/08/06 02:42:32;;;;;;;16.58;12.63;;;13.80;99.90;;;;;;5076136;28;20043;-61
2023/08/06 02:44:58;;;;;;;15.82;11.68;;;13.90;99.90;;;;;;5075496;28;20121;-61
2023/08/06 02:47:24;;;;;;;16.55;12.73;;;13.80;99.90;;;;;;5059629;28;20483;-61
2023/08/06 02:49:49;;;;;;;14.75;11.20;;;13.90;99.90;;;;;;5075751;28;20135;-62
2023/08/06 02:52:15;;;;;;;18.02;11.75;;;13.80;99.90;;;;;;5075795;28;20040;-62
2023/08/06 02:54:41;;;;;;;16.33;11.63;;;13.90;99.90;;;;;;5094146;28;20043;-62
2023/08/06 02:57:06;;;;;;;17.38;12.73;;;13.90;99.90;;;;;;5076494;28;20111;-62
2023/08/06 02:59:32;;;;;;;15.48;12.27;;;13.90;99.90;;;;;;5058166;28;20097;-62
2023/08/06 03:01:58;;;;;;;14.40;10.80;;;13.90;99.90;;;;;;5076463;28;20131;-62
2023/08/06 03:04:24;;;;;;;14.38;11.50;;;13.80;99.90;;;;;;5094583;28;20528;-62
2023/08/06 03:06:51;;;;;;;16.35;12.27;;;13.90;99.90;;;;;;5093070;28;20048;-62
2023/08/06 03:09:17;;;;;;;16.58;12.55;;;13.90;99.90;;;;;;5076212;28;20042;-63
2023/08/06 03:11:42;;;;;;;18.67;12.68;;;13.90;99.90;;;;;;5075152;28;20040;-63
2023/08/06 03:14:08;;;;;;;14.40;11.48;;;13.90;99.90;;;;;;5092957;28;20069;-63
2023/08/06 03:16:35;;;;;;;14.93;11.65;;;13.90;99.90;;;;;;5094046;28;20032;-63
2023/08/06 03:19:01;;;;;;;17.27;11.73;;;13.90;99.90;;;;;;5075037;28;20055;-63
2023/08/06 03:21:27;;;;;;;15.50;11.65;;;13.90;99.90;;;;;;5093387;28;20437;-63
2023/08/06 03:23:52;;;;;;;15.57;10.93;;;13.90;99.90;;;;;;5075701;28;20051;-63
2023/08/06 03:26:18;;;;;;;16.73;12.65;;;13.90;99.90;;;;;;5093176;28;20132;-63
2023/08/06 03:28:44;;;;;;;16.13;11.73;;;13.90;99.90;;;;;;5075057;28;20455;-63
2023/08/06 03:31:09;;;;;;;20.65;12.18;;;13.90;99.90;;;;;;5075347;28;20488;-63
2023/08/06 03:33:35;;;;;;;17.45;12.98;;;13.90;99.90;;;;;;5092897;28;20079;-63
2023/08/06 03:36:01;;;;;;;17.98;13.35;;;13.90;99.90;;;;;;5075421;28;20081;-63
2023/08/06 03:38:27;;;;;;;17.15;12.75;;;13.90;99.90;;;;;;5075797;28;20440;-63
2023/08/06 03:40:53;;;;;;;14.07;11.35;;;13.90;99.90;;;;;;5074170;28;20096;-63
2023/08/06 03:43:19;;;;;;;17.67;13.13;;;13.90;99.90;;;;;;5075472;28;20036;-63
2023/08/06 03:45:44;;;;;;;20.33;13.10;;;13.90;99.90;;;;;;5074826;28;20507;-63
2023/08/06 03:48:10;;;;;;;18.73;12.93;;;13.90;99.90;;;;;;5092681;28;20056;-63
2023/08/06 03:50:36;;;;;;;18.20;12.52;;;13.90;99.90;;;;;;5058387;28;20036;-63
2023/08/06 03:53:02;;;;;;;11.80;9.30;;;14.00;99.90;;;;;;5074893;28;20096;-63
2023/08/06 03:55:28;;;;;;;16.85;11.45;;;13.90;99.90;;;;;;5074007;28;20104;-63
2023/08/06 03:57:53;;;;;;;17.77;13.23;;;13.90;99.90;;;;;;5074944;28;20076;-63
2023/08/06 04:00:19;;;;;;;16.77;11.13;;;13.90;99.90;;;;;;5074476;28;20047;-63
2023/08/06 04:02:45;;;;;;;21.20;12.70;;;13.80;99.90;;;;;;5073293;28;20040;-62
2023/08/06 04:05:11;;;;;;;16.00;11.63;;;13.80;99.90;;;;;;5093325;28;20048;-63
2023/08/06 04:07:37;;;;;;;17.83;12.55;;;13.90;99.90;;;;;;5074469;28;20032;-63
2023/08/06 04:10:04;;;;;;;15.68;11.05;;;13.80;99.90;;;;;;5073626;28;20031;-62
2023/08/06 04:12:31;;;;;;;17.08;10.95;;;13.80;99.90;;;;;;5074977;28;20035;-63
2023/08/06 04:14:58;;;;;;;16.38;12.25;;;13.80;99.90;;;;;;5092587;28;20500;-62
2023/08/06 04:17:24;;;;;;;12.15;10.20;;;13.80;99.90;;;;;;5092128;28;20125;-63
2023/08/06 04:19:54;;;;;;;16.70;11.27;;;13.80;99.90;;;;;;5074021;28;20071;-62
2023/08/06 04:22:21;;;;;;;13.10;9.85;;;13.80;99.90;;;;;;5092202;28;20510;-63
2023/08/06 04:24:47;;;;;;;12.57;10.13;;;13.70;99.90;;;;;;5073559;28;20040;-62
2023/08/06 04:27:14;;;;;;;16.40;11.98;;;13.70;99.90;;;;;;5074380;28;20071;-62
2023/08/06 04:29:40;;;;;;;15.77;11.85;;;13.80;99.90;;;;;;5091065;28;20508;-62
2023/08/06 04:32:07;;;;;;;13.23;9.95;;;13.80;99.90;;;;;;5074776;28;20032;-63
2023/08/06 04:34:33;;;;;;;12.27;9.60;;;13.80;99.90;;;;;;5074408;28;20046;-63
2023/08/06 04:37:00;;;;;;;14.45;10.93;;;13.70;99.90;;;;;;5073681;28;20040;-62
2023/08/06 04:39:25;;;;;;;14.38;10.95;;;13.70;99.90;;;;;;5074075;28;20039;-62
2023/08/06 04:41:51;;;;;;;13.02;10.07;;;13.80;99.90;;;;;;5073926;28;20040;-63
2023/08/06 04:44:17;;;;;;;16.20;10.70;;;13.80;99.90;;;;;;5056880;28;20438;-62
2023/08/06 04:46:42;;;;;;;12.95;10.60;;;13.70;99.90;;;;;;5073741;28;20056;-63
2023/08/06 04:49:08;;;;;;;19.73;14.00;;;13.70;99.90;;;;;;5074089;28;20044;-63
2023/08/06 04:51:34;;;;;;;17.35;13.55;;;13.80;99.90;;;;;;5056436;28;20071;-63
2023/08/06 04:54:00;;;;;;;17.55;13.43;;;13.70;99.90;;;;;;5092005;28;20093;-63
2023/08/06 04:56:25;;;;;;;20.52;14.70;;;13.80;99.90;;;;;;5074439;28;20028;-62
2023/08/06 04:58:51;;;;;;;18.08;13.23;;;13.80;99.90;;;;;;5090899;28;20093;-63
2023/08/06 05:01:17;;;;;;;16.52;14.18;;;13.80;99.90;;;;;;5074004;28;20075;-62
2023/08/06 05:03:43;;;;;;;16.77;12.90;;;13.80;99.90;;;;;;5073994;28;20079;-62
2023/08/06 05:06:08;;;;;;;23.38;12.70;;;13.80;99.90;;;;;;5072814;28;20444;-63
2023/08/06 05:08:34;;;;;;;20.58;14.80;;;13.80;99.90;;;;;;5073810;28;20695;-62
2023/08/06 05:11:00;;;;;;;14.73;11.57;;;13.90;99.90;;;;;;5073742;28;20040;-62
2023/08/06 05:13:25;;;;;;;13.80;10.95;;;13.90;99.90;;;;;;5091582;28;20032;-62
2023/08/06 05:15:53;;;;;;;15.30;11.65;;;14.00;99.90;;;;;;5073046;28;20516;-63
2023/08/06 05:18:19;;;;;;;17.50;11.98;;;14.00;99.90;;;;;;5074258;28;20048;-62
2023/08/06 05:20:45;;;;;;;17.60;13.88;;;14.00;99.90;;;;;;5072748;28;20442;-62
2023/08/06 05:23:11;;;;;;;16.30;13.60;;;14.00;99.90;;;;;;5073592;28;20065;-62
2023/08/06 05:25:40;;;;;;;18.33;13.80;;;14.00;99.90;;;;;;5072927;28;20040;-62
2023/08/06 05:28:05;;;;;;;16.75;13.05;;;14.10;99.90;;;;;;5056948;28;20054;-62
2023/08/06 05:30:31;;;;;;;19.40;13.63;;;14.10;99.90;;;;;;5092004;28;20039;-62
2023/08/06 05:32:57;;;;;;;18.52;12.90;;;14.20;99.90;;;;;;5072773;28;20481;-63
2023/08/06 05:35:23;;;;;;;16.17;13.07;;;14.20;99.90;;;;;;5073585;28;20036;-62
2023/08/06 05:37:51;;;;;;;15.25;12.43;;;14.20;99.90;;;;;;5076418;28;20044;-62
2023/08/06 05:40:17;;;;;;;22.08;14.40;;;14.20;99.90;;;;;;5095474;28;20097;-62
2023/08/06 05:42:42;;;;;;;17.25;13.82;;;14.20;99.90;;;;;;5060368;28;20455;-62
2023/08/06 05:45:09;;;;;;;15.27;11.30;;;14.30;99.90;;;;;;5096041;28;20419;-62
2023/08/06 05:47:35;;;;;;;18.42;12.52;;;14.30;99.90;;;;;;5094530;28;20060;-63
2023/08/06 05:50:01;;;;;;;18.50;13.68;;;14.40;99.90;;;;;;5077240;28;20113;-62
2023/08/06 05:52:26;;;;;;;16.85;13.65;;;14.40;99.90;;;;;;5095646;28;20042;-62
2023/08/06 05:54:52;;;;;;;18.23;13.52;;;14.50;99.90;;;;;;5076308;28;20036;-63
2023/08/06 05:57:18;;;;;;;20.80;14.82;;;14.50;99.90;;;;;;5077281;28;20032;-62
2023/08/06 05:59:43;;;;;;;18.02;13.40;;;14.50;99.90;;;;;;5076703;28;20036;-62
2023/08/06 06:02:09;;;;;;;16.48;13.18;;;14.50;99.90;;;;;;5076810;28;20477;-62
2023/08/06 06:04:36;;;;;;;16.30;12.65;;;14.60;99.90;;;;;;5060369;28;20047;-62
2023/08/06 06:07:02;;;;;;;17.85;13.73;;;14.60;99.90;;;;;;5077057;28;20117;-62
2023/08/06 06:09:28;;;;;;;15.52;12.25;;;14.60;99.90;;;;;;5075205;28;20067;-62
2023/08/06 06:11:53;;;;;;;17.10;13.20;;;14.60;99.90;;;;;;5076977;28;20481;-62
2023/08/06 06:14:19;;;;;;;14.32;12.07;;;14.70;99.90;;;;;;5060655;28;20538;-62
2023/08/06 06:16:45;;;;;;;15.90;12.13;;;14.70;99.90;;;;;;5059459;28;20188;-62
2023/08/06 06:19:12;;;;;;;14.00;11.57;;;14.70;99.90;;;;;;5067308;28;20128;-62
2023/08/06 06:21:38;;;;;;;15.57;13.07;;;14.70;99.90;;;;;;5095216;28;20075;-62
2023/08/06 06:24:05;;;;;;;14.35;11.75;;;14.80;99.90;;;;;;5076181;28;20382;-62
2023/08/06 06:26:31;;;;;;;17.63;12.00;;;14.80;99.90;;;;;;5094535;28;20039;-63
2023/08/06 06:28:57;;;;;;;14.38;12.10;;;14.90;99.90;;;;;;5075829;28;20040;-62
2023/08/06 06:31:23;;;;;;;15.27;12.05;;;14.90;99.90;;;;;;5095005;28;20119;-62
2023/08/06 06:33:49;;;;;;;17.33;13.27;;;15.00;99.90;;;;;;5059686;28;20151;-62
2023/08/06 06:36:14;;;;;;;13.73;11.30;;;15.00;99.90;;;;;;5059447;28;20481;-62
2023/08/06 06:38:40;;;;;;;14.35;12.15;;;15.20;99.90;;;;;;5075988;28;20042;-63
2023/08/06 06:41:06;;;;;;;16.70;11.20;;;15.20;99.90;;;;;;5095112;28;20036;-62
2023/08/06 06:43:32;;;;;;;15.88;12.45;;;15.20;99.90;;;;;;5093822;28;20476;-63
2023/08/06 06:45:59;;;;;;;18.15;11.35;;;15.30;99.90;;;;;;5072791;28;20043;-63
2023/08/06 06:48:29;;;;;;;15.65;11.55;;;15.30;99.90;;;;;;5072665;28;20062;-62
2023/08/06 06:50:56;;;;;;;13.35;9.80;;;15.30;99.90;;;;;;5073009;28;20044;-62
2023/08/06 06:53:28;;;;;;;13.45;10.38;;;15.40;99.90;;;;;;5092122;28;20044;-63
2023/08/06 06:55:54;;;;;;;18.20;10.30;;;15.40;99.90;;;;;;5091103;28;20512;-62
2023/08/06 06:58:20;;;;;;;14.43;10.40;;;15.40;99.90;;;;;;5072316;28;20115;-63
2023/08/06 07:00:49;;;;;;;14.10;11.80;;;15.40;99.90;;;;;;5073137;28;20505;-62
2023/08/06 07:03:19;;;;;;;11.77;9.35;;;15.50;99.90;;;;;;5073558;28;20055;-63
2023/08/06 07:05:45;;;;;;;12.32;11.02;;;15.40;99.90;;;;;;5071689;28;20047;-62
2023/08/06 07:08:11;;;;;;;13.80;10.85;;;15.50;99.90;;;;;;5073383;28;20206;-62
2023/08/06 07:10:37;;;;;;;12.80;9.73;;;15.50;99.90;;;;;;5089028;28;20057;-63
2023/08/06 07:13:03;;;;;;;14.07;9.50;;;15.50;99.90;;;;;;5090143;28;20067;-63
2023/08/06 07:15:28;;;;;;;11.85;8.35;;;15.60;99.90;;;;;;5091000;28;20098;-62
2023/08/06 07:17:54;;;;;;;12.25;9.55;;;15.60;99.90;;;;;;5055199;28;20085;-63
2023/08/06 07:20:19;;;;;;;12.90;9.40;;;15.70;99.90;;;;;;5072307;28;20044;-62
2023/08/06 07:22:45;;;;;;;10.95;9.13;;;15.70;99.90;;;;;;5071728;28;20105;-62
2023/08/06 07:25:11;;;;;;;11.77;8.45;;;15.80;99.90;;;;;;5090326;28;20040;-62
2023/08/06 07:27:37;;;;;;;10.80;8.63;;;15.80;99.90;;;;;;5072430;28;20542;-63
2023/08/06 07:30:05;;;;;;;10.98;8.73;;;15.90;99.90;;;;;;5072533;28;20028;-63
2023/08/06 07:32:31;;;;;;;11.27;8.90;;;16.00;99.90;;;;;;5090146;28;20043;-63
2023/08/06 07:35:00;;;;;;;10.57;8.50;;;16.00;99.90;;;;;;5072145;28;20504;-62
2023/08/06 07:37:28;;;;;;;11.13;9.20;;;16.10;99.90;;;;;;5073214;28;20400;-63
2023/08/06 07:39:54;;;;;;;11.43;7.78;;;16.10;99.90;;;;;;5055102;28;20036;-63
2023/08/06 07:42:20;;;;;;;10.23;8.13;;;16.20;99.90;;;;;;5056502;28;20070;-63
2023/08/06 07:44:57;;;;;;;10.15;8.23;;;16.20;99.90;;;;;;5055114;28;20044;-63
2023/08/06 07:47:23;;;;;;;11.45;8.82;;;16.30;99.90;;;;;;5056982;28;20109;-63
2023/08/06 07:49:49;;;;;;;9.57;7.72;;;16.30;99.90;;;;;;5071864;28;20036;-63
2023/08/06 07:52:15;;;;;;;10.30;6.50;;;16.40;99.90;;;;;;5072670;28;20044;-63
2023/08/06 07:54:40;;;;;;;9.30;7.53;;;16.40;99.90;;;;;;5069236;28;20034;-63
2023/08/06 07:57:06;;;;;;;9.27;6.55;;;16.50;99.90;;;;;;5061428;28;20094;-63
2023/08/06 07:59:32;;;;;;;10.05;6.85;;;16.60;99.90;;;;;;5088153;28;20070;-63
2023/08/06 08:01:58;;;;;;;9.48;6.65;;;16.60;99.90;;;;;;5051268;28;20063;-63
2023/08/06 08:04:24;;;;;;;8.25;6.97;;;16.70;99.90;;;;;;5063306;28;20485;-63
2023/08/06 08:06:50;;;;;;;9.30;6.82;;;16.80;99.90;;;;;;5078994;28;20135;-62
2023/08/06 08:09:16;;;;;;;12.93;6.55;;;16.90;99.90;;;;;;5059931;28;20126;-62
2023/08/06 08:11:42;;;;;;;7.35;5.30;;;17.10;99.90;;;;;;5089198;28;20044;-62
2023/08/06 08:14:08;;;;;;;10.48;6.50;;;17.10;99.90;;;;;;5070580;28;20113;-62
2023/08/06 08:16:34;;;;;;;9.77;6.47;;;17.20;99.90;;;;;;5088259;28;20055;-62
2023/08/06 08:18:59;;;;;;;10.15;6.00;;;17.20;99.90;;;;;;5066884;28;20044;-62
2023/08/06 08:21:25;;;;;;;9.77;5.68;;;17.30;99.90;;;;;;5070188;28;20477;-61
2023/08/06 08:23:51;;;;;;;7.80;5.15;;;17.30;99.90;;;;;;5089427;28;20050;-62
2023/08/06 08:26:17;;;;;;;8.77;6.03;;;17.40;99.90;;;;;;5083891;28;20040;-62
2023/08/06 08:28:43;;;;;;;10.88;5.80;;;17.50;99.90;;;;;;5070914;28;20125;-62
2023/08/06 08:31:09;;;;;;;9.88;5.68;;;17.70;99.90;;;;;;5068083;28;20044;-62
2023/08/06 08:33:35;;;;;;;8.40;5.97;;;17.80;99.90;;;;;;5071364;28;20065;-62
2023/08/06 08:36:01;;;;;;;6.50;4.47;;;17.90;99.90;;;;;;5087954;28;20040;-61
2023/08/06 08:38:26;;;;;;;8.07;5.20;;;18.00;99.90;;;;;;5089428;28;20500;-62
2023/08/06 08:40:54;;;;;;;9.43;5.00;;;18.10;99.90;;;;;;5054204;28;20114;-61
2023/08/06 08:43:22;;;;;;;7.30;4.05;;;18.10;99.90;;;;;;5067644;28;20048;-62
2023/08/06 08:45:51;;;;;;;6.70;4.45;;;18.00;99.90;;;;;;5087668;28;20040;-62
2023/08/06 08:48:19;;;;;;;6.13;4.10;;;18.00;99.90;;;;;;5089091;28;20048;-62
2023/08/06 08:50:46;;;;;;;5.85;4.10;;;18.10;99.90;;;;;;5045599;28;20374;-62
2023/08/06 08:53:15;;;;;;;6.53;4.45;;;18.10;99.90;;;;;;5076757;28;20040;-62
2023/08/06 08:55:42;;;;;;;6.80;4.10;;;18.10;99.90;;;;;;5071037;28;20044;-62
2023/08/06 08:58:08;;;;;;;7.25;4.20;;;18.20;99.90;;;;;;5070105;28;20074;-62
2023/08/06 09:00:34;;;;;;;6.40;4.07;;;18.30;99.90;;;;;;5050833;28;20113;-62
2023/08/06 09:03:05;;;;;;;6.15;3.97;;;18.40;99.90;;;;;;5060212;28;20040;-62
2023/08/06 09:05:32;;;;;;;8.55;4.18;;;18.60;99.90;;;;;;5053667;28;20044;-62
2023/08/06 09:08:02;;;;;;;6.32;3.53;;;18.60;99.90;;;;;;5070760;28;20445;-62
2023/08/06 09:10:28;;;;;;;7.35;3.97;;;18.70;99.90;;;;;;5068647;28;20043;-62
2023/08/06 09:12:56;;;;;;;9.98;3.47;;;18.80;99.90;;;;;;5070002;28;20364;-62
2023/08/06 09:15:25;;;;;;;7.15;3.92;;;18.80;99.90;;;;;;5071298;28;20096;-62
2023/08/06 09:17:54;;;;;;;6.97;3.63;;;18.80;99.90;;;;;;5088314;28;20044;-62
2023/08/06 09:20:20;;;;;;;5.22;2.42;;;18.90;99.90;;;;;;5089395;28;20032;-62
2023/08/06 09:22:47;;;;;;;5.10;3.03;;;18.90;99.90;;;;;;5088379;28;20388;-62
2023/08/06 09:25:23;;;;;;;5.13;2.55;;;19.00;99.90;;;;;;5047188;28;20502;-62
2023/08/06 09:27:50;;;;;;;4.75;2.40;;;18.90;99.90;;;;;;5063402;28;20048;-62
2023/08/06 09:30:38;;;;;;;6.05;2.83;;;18.90;99.90;;;;;;5085723;28;20441;-62
2023/08/06 09:33:08;;;;;;;5.85;2.50;;;18.90;99.90;;;;;;5074361;28;20032;-62
2023/08/06 09:35:33;;;;;;;4.18;2.40;;;18.90;99.90;;;;;;5079541;28;20039;-62
2023/08/06 09:38:07;;;;;;;4.85;2.42;;;18.90;99.90;;;;;;5089896;28;20757;-62
2023/08/06 09:40:33;;;;;;;6.05;2.58;;;18.90;99.90;;;;;;5052929;28;20098;-62
2023/08/06 09:42:59;;;;;;;5.35;2.75;;;19.00;99.90;;;;;;5079435;28;20052;-62
2023/08/06 09:45:51;;;;;;;4.40;2.28;;;19.00;99.90;;;;;;5070613;28;20044;-62
2023/08/06 09:48:16;;;;;;;5.50;2.55;;;19.10;99.90;;;;;;5053126;28;20051;-62
2023/08/06 09:50:42;;;;;;;4.60;2.55;;;19.10;99.90;;;;;;5054011;28;20101;-62
2023/08/06 09:53:08;;;;;;;3.97;1.90;;;19.10;99.90;;;;;;5084897;28;20032;-62
2023/08/06 09:55:34;;;;;;;6.47;2.13;;;19.20;99.90;;;;;;5063439;28;20115;-61
2023/08/06 09:58:01;;;;;;;4.65;2.20;;;19.20;99.90;;;;;;5070461;28;20469;-62
2023/08/06 10:00:28;;;;;;;4.05;2.13;;;19.20;99.90;;;;;;5070171;28;20044;-62
2023/08/06 10:02:55;;;;;;;4.55;2.05;;;19.30;99.90;;;;;;5089028;28;20048;-61
2023/08/06 10:05:23;;;;;;;3.92;2.00;;;19.30;99.90;;;;;;5070785;28;20036;-62
2023/08/06 10:07:50;;;;;;;4.97;2.58;;;19.40;99.90;;;;;;5070135;28;20040;-61
2023/08/06 10:10:19;;;;;;;4.40;2.13;;;19.50;99.90;;;;;;5068177;28;20081;-61
2023/08/06 10:12:58;;;;;;;4.15;2.13;;;19.50;99.90;;;;;;5070291;28;20036;-61
2023/08/06 10:15:29;;;;;;;4.43;2.17;;;19.60;99.90;;;;;;5090294;28;20036;-62
2023/08/06 10:17:57;;;;;;;4.53;2.28;;;19.60;99.90;;;;;;5073578;28;20085;-61
2023/08/06 10:20:23;;;;;;;4.22;1.83;;;19.60;99.90;;;;;;5091376;28;20051;-61
2023/08/06 10:23:04;;;;;;;4.80;2.50;;;19.60;99.90;;;;;;5072132;28;20032;-61
2023/08/06 10:25:34;;;;;;;6.35;2.47;;;19.50;99.90;;;;;;5094888;28;20602;-61
2023/08/06 10:28:00;;;;;;;5.63;2.75;;;19.40;99.90;;;;;;5059099;28;20051;-61
2023/08/06 10:30:32;;;;;;;5.03;2.92;;;19.40;99.90;;;;;;5094379;28;20040;-61
2023/08/06 10:33:04;;;;;;;5.22;2.83;;;19.30;99.90;;;;;;5070135;28;20032;-61
2023/08/06 10:35:34;;;;;;;6.78;3.17;;;19.30;99.90;;;;;;5075715;28;20078;-61
2023/08/06 10:38:31;;;;;;;5.80;3.22;;;19.30;99.90;;;;;;5060474;28;20441;-61
2023/08/06 10:40:57;;;;;;;6.57;2.90;;;19.30;99.90;;;;;;5091649;28;20076;-61
2023/08/06 10:43:30;;;;;;;5.10;3.10;;;19.30;99.90;;;;;;5075511;28;20044;-61
2023/08/06 10:45:58;;;;;;;6.47;3.17;;;19.30;99.90;;;;;;5094900;28;20036;-61
2023/08/06 10:48:40;;;;;;;6.07;3.38;;;19.30;99.90;;;;;;5058322;28;20082;-61
2023/08/06 10:51:11;;;;;;;5.57;3.35;;;19.30;99.90;;;;;;5075237;28;20093;-61
2023/08/06 10:53:37;;;;;;;5.55;3.42;;;19.10;99.90;;;;;;5094452;28;20096;-61
2023/08/06 10:56:14;;;;;;;7.57;3.17;;;19.10;99.90;;;;;;5093924;28;20047;-61
2023/08/06 10:58:39;;;;;;;7.30;3.28;;;19.10;99.90;;;;;;5076245;28;20173;-61
2023/08/06 11:01:06;;;;;;;5.40;3.00;;;19.10;99.90;;;;;;5076353;28;20127;-61
2023/08/06 11:03:32;;;;;;;6.03;3.38;;;19.10;99.90;;;;;;5075197;28;20048;-61
2023/08/06 11:05:58;;;;;;;5.20;2.78;;;19.20;99.90;;;;;;5076556;28;20048;-61
2023/08/06 11:08:28;;;;;;;4.72;2.53;;;19.30;99.90;;;;;;5092761;28;20039;-61
2023/08/06 11:10:53;;;;;;;5.45;2.70;;;19.30;99.90;;;;;;5075316;28;20036;-62
2023/08/06 11:13:20;;;;;;;5.38;2.70;;;19.30;99.90;;;;;;5093436;28;20567;-62
2023/08/06 11:15:46;;;;;;;9.52;3.47;;;19.30;99.90;;;;;;5093777;28;20058;-61
2023/08/06 11:18:12;;;;;;;7.40;2.92;;;19.50;99.90;;;;;;5092991;28;20464;-61
2023/08/06 11:20:39;;;;;;;4.65;2.50;;;19.60;99.90;;;;;;5093564;28;20046;-61
2023/08/06 11:23:05;;;;;;;4.82;2.35;;;19.70;99.90;;;;;;5076480;28;20396;-62
2023/08/06 11:25:36;;;;;;;5.72;2.90;;;19.90;99.90;;;;;;5074690;28;20044;-62
2023/08/06 11:28:01;;;;;;;6.13;2.85;;;20.10;99.90;;;;;;5075840;28;20060;-62
2023/08/06 11:30:27;;;;;;;6.20;2.47;;;20.20;99.90;;;;;;5075592;28;20381;-61
2023/08/06 11:32:53;;;;;;;4.68;2.97;;;20.30;99.90;;;;;;5093258;28;20127;-62
2023/08/06 11:35:18;;;;;;;5.10;2.60;;;20.50;99.90;;;;;;5075177;28;20032;-62
2023/08/06 11:37:47;;;;;;;5.38;2.65;;;20.60;99.90;;;;;;5093489;28;20115;-61
2023/08/06 11:40:15;;;;;;;13.00;3.38;;;20.60;99.90;;;;;;5073732;28;20101;-61
2023/08/06 11:42:42;;;;;;;4.28;2.20;;;20.50;99.90;;;;;;5058309;28;20082;-61
2023/08/06 11:45:09;;;;;;;6.93;2.88;;;20.50;99.90;;;;;;5053966;28;20040;-62
2023/08/06 11:47:40;;;;;;;5.22;2.40;;;20.40;99.90;;;;;;5071313;28;20115;-61
2023/08/06 11:50:06;;;;;;;4.63;2.55;;;20.40;99.90;;;;;;5072451;28;20520;-61
2023/08/06 11:52:32;;;;;;;5.35;2.60;;;20.40;99.90;;;;;;5071785;28;20043;-62
2023/08/06 11:55:14;;;;;;;7.05;2.88;;;20.30;99.90;;;;;;5069160;28;20044;-62
2023/08/06 11:57:44;;;;;;;5.15;1.92;;;20.20;99.90;;;;;;5083221;28;20047;-61
2023/08/06 12:00:14;;;;;;;5.93;2.58;;;20.20;99.90;;;;;;5056603;28;20155;-61
2023/08/06 12:02:41;;;;;;;5.72;2.78;;;20.20;99.90;;;;;;5036790;28;20036;-61
2023/08/06 12:05:11;;;;;;;4.53;2.20;;;20.20;99.90;;;;;;5078548;28;20071;-61
2023/08/06 12:07:38;;;;;;;5.35;2.70;;;20.30;99.90;;;;;;5088351;28;20082;-62
2023/08/06 12:10:05;;;;;;;4.82;2.40;;;20.20;99.90;;;;;;5072248;28;20353;-62
2023/08/06 12:12:31;;;;;;;4.80;2.47;;;20.20;99.90;;;;;;5072012;28;20119;-62
2023/08/06 12:14:57;;;;;;;4.32;2.30;;;20.00;99.90;;;;;;5089606;28;20199;-61
2023/08/06 12:17:24;;;;;;;5.10;2.50;;;19.90;99.90;;;;;;5071993;28;20393;-62
2023/08/06 12:19:49;;;;;;;4.80;2.55;;;19.90;99.90;;;;;;5071458;28;20505;-61
2023/08/06 12:22:15;;;;;;;6.63;3.25;;;19.90;99.90;;;;;;5070736;28;20058;-62
2023/08/06 12:24:42;;;;;;;5.03;2.42;;;20.00;99.90;;;;;;5089927;28;20123;-62
2023/08/06 12:27:09;;;;;;;6.40;2.83;;;20.10;99.90;;;;;;5071420;28;20366;-61
2023/08/06 12:29:35;;;;;;;5.55;2.63;;;20.10;99.90;;;;;;5087792;28;20079;-62
2023/08/06 12:32:00;;;;;;;4.18;2.05;;;20.20;99.90;;;;;;5071257;28;20072;-62
2023/08/06 12:34:26;;;;;;;11.50;3.15;;;20.30;99.90;;;;;;5070785;28;20032;-61